Mountain Top, PA (18707)

6:24 AM EDT on April 02, 2015 (GMT -0400)
Fairview Heights | | Change Station
CLOSE
Current Station
Personal Weather Station
Location: Mountain Top, PA
Elevation: 1421 ft
Nearby Weather Stations

Elev 1421 ft 41.16 °N, 75.89 °W | Updated 3 minutes ago

Clear
Clear
28.2 °F
Feels Like 28 °F
N
0.0
Wind Variable Wind from ESE

Today
High -- | Low -- °F
--% Chance of Precip.
Yesterday
High -- | Low -- °F
Precip. -- in
6:45 AM 7:29 PM
Waxing Gibbous, 96% visible
Pressure 30.20 in
Visibility 10.0 miles
Clouds Clear
Windchill 28 °F
Dew Point 28 °F
Humidity 99%
Rainfall 0.00 in
Snow Depth Not available.
UV 0 out of 12
Pollen 9.40 out of 12
Air Quality Not available.
Flu Activity Not available.
METAR KAVP 020954Z AUTO 10003KT 10SM CLR M02/M05 A3018 RMK AO2 SLP226 T10171050 $

More Conditions Fewer Conditions

Pressure 30.20 in
Visibility 10.0 miles
Clouds Clear
Windchill 28 °F
Dew Point 28 °F
Humidity 99%
Rainfall 0.00 in
Snow Depth Not available.
UV 0 out of 12
Pollen 9.40 out of 12
Air Quality Not available.
Flu Activity Not available.
METAR KAVP 020954Z AUTO 10003KT 10SM CLR M02/M05 A3018 RMK AO2 SLP226 T10171050 $

More Conditions Fewer Conditions

10-Day Weather Forecast

Almanac

Astronomy

Apr. 02, 2015 Rise Set
Actual Time
Civil Twilight
Nautical Twilight
Astronomical Twilight
Moon
Length of Visible Light
Length of Day
Tomorrow will be .
, % of the Moon is Illuminated

Today's Extremes

State Highs State Lows

Community

WunderPhotos

Upload Photos

1,810,216 photos uploaded!

WunderBlogs® & News

Nearby

Air Quality

  Air Quality AQ Index Pollutant
Not available.

Snow Depth

Station Depth Elevation

Earthquake Activity

City Distance Mag. Time & Date
Minimum magnitude displayed is 2.5.

Coastal Water Temperatures

Place Temperature

Stations

Nearby Weather Stations

Station Location Temp. Windchill Dew Point Humidity Wind Precip. Elev Updated Type